Time;durP1;ratioP1;P1;durP2;ratioP2;P2;SDS_P1;SDS_P2;PMS_P1;PMS_P2;Temp;Humidity;BMP_temperature;BMP_pressure;BME280_temperature;BME280_humidity;BME280_pressure;Samples;Min_cycle;Max_cycle;Signal;HPM_P1;HPM_P2
2024/01/18 00:00:50;;;;;;;21.15;16.80;;;-1.10;99.90;;;;;;5068030;28;20278;-74
2024/01/18 00:03:19;;;;;;;22.50;13.77;;;-1.00;99.90;;;;;;5055222;28;20231;-73
2024/01/18 00:05:46;;;;;;;24.95;15.98;;;-1.00;99.90;;;;;;5066720;28;20255;-73
2024/01/18 00:08:13;;;;;;;26.35;17.75;;;-1.00;99.90;;;;;;5068831;28;20221;-73
2024/01/18 00:10:39;;;;;;;21.40;14.93;;;-0.90;99.90;;;;;;5055971;28;20198;-73
2024/01/18 00:13:07;;;;;;;23.13;14.50;;;-0.90;99.90;;;;;;5065960;28;20462;-73
2024/01/18 00:15:34;;;;;;;22.08;14.60;;;-0.90;99.90;;;;;;5064591;28;20201;-73
2024/01/18 00:18:02;;;;;;;25.10;16.60;;;-0.90;99.90;;;;;;5062119;28;20225;-72
2024/01/18 00:20:30;;;;;;;26.87;15.30;;;-0.80;99.90;;;;;;5064645;28;20487;-73
2024/01/18 00:22:57;;;;;;;28.10;16.70;;;-0.80;99.90;;;;;;5065684;28;21122;-72
2024/01/18 00:25:24;;;;;;;32.73;18.53;;;-0.80;99.90;;;;;;5067428;28;20198;-72
2024/01/18 00:27:51;;;;;;;24.92;16.17;;;-0.70;99.90;;;;;;5067035;28;20472;-73
2024/01/18 00:30:18;;;;;;;24.27;15.70;;;-0.80;99.90;;;;;;5064120;28;20194;-72
2024/01/18 00:32:45;;;;;;;27.53;16.77;;;-0.70;99.90;;;;;;5060462;28;20773;-73
2024/01/18 00:35:12;;;;;;;24.80;17.37;;;-0.80;99.90;;;;;;5057567;28;20458;-74
2024/01/18 00:37:40;;;;;;;24.57;14.87;;;-0.80;99.90;;;;;;5065960;28;20483;-72
2024/01/18 00:40:08;;;;;;;25.57;17.30;;;-0.80;99.90;;;;;;5062662;28;20494;-73
2024/01/18 00:42:35;;;;;;;26.23;16.67;;;-0.80;99.90;;;;;;5064739;28;20502;-74
2024/01/18 00:45:02;;;;;;;27.17;16.60;;;-0.80;99.90;;;;;;5059859;28;20476;-73
2024/01/18 00:47:29;;;;;;;24.90;15.30;;;-0.80;99.90;;;;;;5065628;28;20490;-73
2024/01/18 00:49:56;;;;;;;31.60;17.77;;;-0.90;99.90;;;;;;5060224;28;20581;-72
2024/01/18 00:52:23;;;;;;;23.27;15.93;;;-0.90;99.90;;;;;;5065373;28;20225;-73
2024/01/18 00:54:51;;;;;;;24.63;15.55;;;-0.90;99.90;;;;;;5049489;28;20395;-72
2024/01/18 00:57:18;;;;;;;25.77;14.40;;;-0.90;99.90;;;;;;5062386;28;20237;-74
2024/01/18 00:59:45;;;;;;;27.02;16.30;;;-0.80;99.90;;;;;;5053779;28;20286;-74
2024/01/18 01:02:12;;;;;;;24.50;16.83;;;-0.80;99.90;;;;;;5061783;28;20282;-73
2024/01/18 01:04:39;;;;;;;21.50;13.87;;;-0.80;99.90;;;;;;5053183;28;20565;-73
2024/01/18 01:07:06;;;;;;;22.88;15.52;;;-0.80;99.90;;;;;;5064542;28;20452;-73
2024/01/18 01:09:33;;;;;;;27.63;15.87;;;-0.80;99.90;;;;;;5061414;28;20535;-73
2024/01/18 01:12:01;;;;;;;23.67;15.43;;;-0.80;99.90;;;;;;5060520;28;20542;-73
2024/01/18 01:14:28;;;;;;;22.10;15.83;;;-0.70;99.90;;;;;;5056792;28;20459;-73
2024/01/18 01:16:55;;;;;;;21.23;15.07;;;-0.70;99.90;;;;;;5063476;28;20467;-74
2024/01/18 01:19:22;;;;;;;18.50;15.10;;;-0.60;99.90;;;;;;5059045;28;20485;-73
2024/01/18 01:21:49;;;;;;;25.17;14.83;;;-0.50;99.90;;;;;;5064601;28;20530;-73
2024/01/18 01:24:16;;;;;;;22.13;16.77;;;-0.60;99.90;;;;;;5053834;28;20449;-73
2024/01/18 01:26:43;;;;;;;28.92;16.17;;;-0.60;99.90;;;;;;5063957;28;20568;-74
2024/01/18 01:29:11;;;;;;;28.33;17.37;;;-0.70;99.90;;;;;;5065679;28;20726;-73
2024/01/18 01:31:38;;;;;;;22.00;14.87;;;-0.70;99.90;;;;;;5066372;28;20535;-72
2024/01/18 01:34:05;;;;;;;26.27;17.37;;;-0.80;99.90;;;;;;5067203;28;20523;-74
2024/01/18 01:36:32;;;;;;;33.20;17.40;;;-0.70;99.90;;;;;;5060030;28;20499;-74
2024/01/18 01:38:59;;;;;;;24.97;17.07;;;-0.50;99.90;;;;;;5061023;28;21027;-73
2024/01/18 01:41:26;;;;;;;23.27;14.52;;;-0.60;99.90;;;;;;5065854;28;20497;-74
2024/01/18 01:44:00;;;;;;;32.33;16.90;;;-0.60;99.90;;;;;;5062464;28;20202;-74
2024/01/18 01:46:29;;;;;;;30.70;18.17;;;-0.60;99.90;;;;;;5065331;28;20452;-74
2024/01/18 01:49:00;;;;;;;21.07;14.60;;;-0.60;99.90;;;;;;5054815;28;20491;-75
2024/01/18 01:51:30;;;;;;;28.73;15.20;;;-0.50;99.90;;;;;;5049902;28;20769;-73
2024/01/18 01:53:58;;;;;;;27.97;17.57;;;-0.50;99.90;;;;;;5056061;28;20552;-74
2024/01/18 01:56:25;;;;;;;25.23;17.20;;;-0.40;99.90;;;;;;5047681;28;20910;-74
2024/01/18 01:58:52;;;;;;;29.83;18.00;;;-0.40;99.90;;;;;;5047909;28;21027;-75
2024/01/18 02:01:19;;;;;;;22.35;16.10;;;-0.30;99.90;;;;;;5054333;28;20564;-73
2024/01/18 02:03:48;;;;;;;22.37;15.27;;;-0.30;99.90;;;;;;5057793;28;20282;-74
2024/01/18 02:06:17;;;;;;;24.97;16.90;;;-0.40;99.90;;;;;;5063777;28;20447;-74
2024/01/18 02:08:46;;;;;;;27.88;17.63;;;-0.40;99.90;;;;;;5061854;28;20502;-74
2024/01/18 02:11:13;;;;;;;26.13;16.83;;;-0.40;99.90;;;;;;5056312;28;20205;-74
2024/01/18 02:13:40;;;;;;;29.47;18.70;;;-0.40;99.90;;;;;;5053024;28;20233;-73
2024/01/18 02:16:07;;;;;;;27.30;16.02;;;-0.20;99.90;;;;;;5064450;28;20929;-74
2024/01/18 02:18:35;;;;;;;34.60;19.27;;;-0.10;99.90;;;;;;5064987;28;20594;-74
2024/01/18 02:21:05;;;;;;;28.43;17.03;;;0.00;99.90;;;;;;5061095;28;20560;-75
2024/01/18 02:23:33;;;;;;;30.07;15.97;;;-0.10;99.90;;;;;;5065971;28;20443;-74
2024/01/18 02:26:02;;;;;;;22.73;15.53;;;-0.30;99.90;;;;;;5057823;28;20807;-74
2024/01/18 02:28:28;;;;;;;25.93;15.67;;;-0.40;99.90;;;;;;5065166;28;20512;-74
2024/01/18 02:30:55;;;;;;;24.17;18.90;;;-0.40;99.90;;;;;;5062327;28;20517;-74
2024/01/18 02:33:23;;;;;;;28.67;17.13;;;-0.30;99.90;;;;;;5064364;28;20471;-75
2024/01/18 02:35:50;;;;;;;27.33;17.85;;;-0.30;99.90;;;;;;5058644;28;20221;-75
2024/01/18 02:38:17;;;;;;;25.40;17.97;;;-0.10;99.90;;;;;;5055266;28;20908;-76
2024/01/18 02:40:44;;;;;;;23.10;16.60;;;-0.20;99.90;;;;;;5051098;28;20572;-76
2024/01/18 02:43:13;;;;;;;29.20;17.30;;;-0.20;99.90;;;;;;5059889;28;20449;-74
2024/01/18 02:45:40;;;;;;;27.13;17.17;;;-0.10;99.90;;;;;;5045670;28;20565;-74
2024/01/18 02:48:07;;;;;;;27.20;17.03;;;-0.30;99.90;;;;;;5059732;28;20533;-75
2024/01/18 02:50:34;;;;;;;31.17;18.50;;;-0.20;99.90;;;;;;5052270;28;20522;-76
2024/01/18 02:53:01;;;;;;;29.03;17.53;;;-0.10;99.90;;;;;;5062306;28;21208;-76
2024/01/18 02:55:28;;;;;;;28.57;19.10;;;-0.10;99.90;;;;;;5062073;28;20465;-74
2024/01/18 02:57:56;;;;;;;20.63;16.00;;;-0.10;99.90;;;;;;5047511;28;20639;-76
2024/01/18 03:00:24;;;;;;;29.33;18.57;;;0.00;99.90;;;;;;5059749;28;20484;-74
2024/01/18 03:02:51;;;;;;;26.33;18.80;;;0.00;99.90;;;;;;5064245;28;20444;-75
2024/01/18 03:05:18;;;;;;;23.15;17.63;;;0.20;99.90;;;;;;5065237;28;20956;-75
2024/01/18 03:07:45;;;;;;;23.37;15.73;;;0.10;99.90;;;;;;5055093;28;20663;-75
2024/01/18 03:10:12;;;;;;;30.08;17.60;;;0.10;99.90;;;;;;5071692;28;20491;-75
2024/01/18 03:12:39;;;;;;;24.50;16.23;;;0.10;99.90;;;;;;5057548;28;20225;-75
2024/01/18 03:15:10;;;;;;;30.50;18.97;;;-0.10;99.90;;;;;;5065809;28;20459;-74
2024/01/18 03:17:38;;;;;;;21.27;15.77;;;-0.20;99.90;;;;;;5066807;28;20510;-76
2024/01/18 03:20:07;;;;;;;22.77;18.63;;;-0.20;99.90;;;;;;5053352;28;20511;-75
2024/01/18 03:22:34;;;;;;;34.33;18.87;;;-0.10;99.90;;;;;;5060741;28;20452;-74
2024/01/18 03:25:01;;;;;;;29.87;18.50;;;-0.20;99.90;;;;;;5050551;28;20445;-75
2024/01/18 03:27:29;;;;;;;21.93;16.27;;;-0.10;99.90;;;;;;5063005;28;21185;-75
2024/01/18 03:29:56;;;;;;;27.93;19.43;;;0.00;99.90;;;;;;5065571;28;21013;-75
2024/01/18 03:32:23;;;;;;;28.90;20.27;;;0.00;99.90;;;;;;5051243;28;20951;-74
2024/01/18 03:34:52;;;;;;;26.00;17.47;;;0.10;99.90;;;;;;5060446;28;20934;-76
2024/01/18 03:37:19;;;;;;;27.43;18.47;;;0.20;99.90;;;;;;5066779;28;20466;-74
2024/01/18 03:39:46;;;;;;;27.23;18.47;;;0.20;99.90;;;;;;5054494;28;20518;-76
2024/01/18 03:42:13;;;;;;;22.43;17.80;;;0.30;99.90;;;;;;5063339;28;20498;-75
2024/01/18 03:44:40;;;;;;;31.27;20.03;;;0.30;99.90;;;;;;5052602;28;20999;-74
2024/01/18 03:47:07;;;;;;;29.10;17.87;;;0.40;99.90;;;;;;5057212;28;20445;-76
2024/01/18 03:49:34;;;;;;;35.77;20.53;;;0.40;99.90;;;;;;5050322;28;20491;-74
2024/01/18 03:52:02;;;;;;;32.13;21.70;;;0.40;99.90;;;;;;5060462;28;20484;-74
2024/01/18 03:54:29;;;;;;;30.03;19.67;;;0.40;99.90;;;;;;5065759;28;20456;-74
2024/01/18 03:56:56;;;;;;;24.63;17.63;;;0.40;99.90;;;;;;5062132;28;20448;-76
2024/01/18 03:59:23;;;;;;;24.17;17.80;;;0.40;99.90;;;;;;5050788;28;20552;-74
2024/01/18 04:01:50;;;;;;;36.20;22.23;;;0.20;99.90;;;;;;5064749;28;20566;-76
2024/01/18 04:04:17;;;;;;;29.90;19.93;;;0.30;99.90;;;;;;5049734;28;20477;-75
2024/01/18 04:06:44;;;;;;;28.70;18.70;;;0.40;99.90;;;;;;5067076;28;20467;-74
2024/01/18 04:09:13;;;;;;;29.83;21.20;;;0.30;99.90;;;;;;5060703;28;20465;-75
2024/01/18 04:11:40;;;;;;;26.77;20.47;;;0.20;99.90;;;;;;5064136;28;20547;-75
2024/01/18 04:14:06;;;;;;;33.50;23.07;;;0.20;99.90;;;;;;5061156;28;20484;-76
2024/01/18 04:16:34;;;;;;;33.77;21.00;;;0.30;99.90;;;;;;5059727;28;20545;-74
2024/01/18 04:19:01;;;;;;;29.17;21.53;;;0.50;99.90;;;;;;5059433;28;20998;-74
2024/01/18 04:21:29;;;;;;;32.03;21.10;;;0.40;99.90;;;;;;5067178;28;20532;-76
2024/01/18 04:23:56;;;;;;;30.80;20.23;;;0.40;99.90;;;;;;5059306;28;20587;-75
2024/01/18 04:26:24;;;;;;;34.13;19.80;;;0.50;99.90;;;;;;5052449;28;20189;-75
2024/01/18 04:28:51;;;;;;;31.63;19.70;;;0.40;99.90;;;;;;5056406;28;20707;-75
2024/01/18 04:31:18;;;;;;;27.20;20.57;;;0.40;99.90;;;;;;5056932;28;20452;-74
2024/01/18 04:33:46;;;;;;;35.77;21.47;;;0.30;99.90;;;;;;5059033;28;20546;-76
2024/01/18 04:36:13;;;;;;;33.77;21.47;;;0.40;99.90;;;;;;5061804;28;20486;-76
2024/01/18 04:38:40;;;;;;;36.40;20.57;;;0.30;99.90;;;;;;5062532;28;20501;-75
2024/01/18 04:41:07;;;;;;;33.67;21.60;;;0.40;99.90;;;;;;5060933;28;20484;-75
2024/01/18 04:43:35;;;;;;;24.30;18.07;;;0.50;99.90;;;;;;5050519;28;20507;-75
2024/01/18 04:46:04;;;;;;;34.60;20.92;;;0.50;99.90;;;;;;5066697;28;20489;-75
2024/01/18 04:48:31;;;;;;;29.30;21.60;;;0.40;99.90;;;;;;5060682;28;20298;-74
2024/01/18 04:50:58;;;;;;;32.93;20.57;;;0.50;99.90;;;;;;5060294;28;20310;-76
2024/01/18 04:53:25;;;;;;;46.05;29.83;;;0.60;99.90;;;;;;5056514;28;20531;-75
2024/01/18 04:55:53;;;;;;;96.87;57.93;;;0.50;99.90;;;;;;5059661;28;20229;-74
2024/01/18 04:58:21;;;;;;;43.03;26.13;;;0.40;99.90;;;;;;5057488;28;20547;-74
2024/01/18 05:00:50;;;;;;;33.03;22.60;;;0.30;99.90;;;;;;5062355;28;20479;-76
2024/01/18 05:03:17;;;;;;;34.03;22.80;;;0.30;99.90;;;;;;5050920;28;20976;-75
2024/01/18 05:05:44;;;;;;;37.50;22.20;;;0.30;99.90;;;;;;5056607;28;20499;-73
2024/01/18 05:08:11;;;;;;;34.70;24.27;;;0.30;99.90;;;;;;5060693;28;20498;-74
2024/01/18 05:10:38;;;;;;;39.05;24.13;;;0.30;99.90;;;;;;5054983;28;20519;-74
2024/01/18 05:13:05;;;;;;;33.63;22.77;;;0.10;99.90;;;;;;5060253;28;20549;-72
2024/01/18 05:15:32;;;;;;;36.73;22.50;;;0.20;99.90;;;;;;5068936;28;21120;-72
2024/01/18 05:18:01;;;;;;;43.73;24.50;;;0.10;99.90;;;;;;5058977;28;20459;-75
2024/01/18 05:20:28;;;;;;;40.20;24.37;;;0.10;99.90;;;;;;5067624;28;21241;-74
2024/01/18 05:22:55;;;;;;;37.17;24.67;;;0.10;99.90;;;;;;5061963;28;20495;-75
2024/01/18 05:25:22;;;;;;;39.23;27.20;;;0.00;99.90;;;;;;5064120;28;20613;-73
2024/01/18 05:27:50;;;;;;;39.97;24.90;;;0.00;99.90;;;;;;5064550;28;20502;-73
2024/01/18 05:30:17;;;;;;;28.17;19.97;;;-0.10;99.90;;;;;;5066226;28;20520;-73
2024/01/18 05:32:44;;;;;;;40.50;31.60;;;-0.20;99.90;;;;;;5064992;28;20463;-74
2024/01/18 05:35:13;;;;;;;39.07;22.37;;;-0.20;99.90;;;;;;5063046;28;20492;-73
2024/01/18 05:37:39;;;;;;;32.03;21.97;;;-0.10;99.90;;;;;;5063608;28;21153;-75
2024/01/18 05:40:08;;;;;;;40.13;23.50;;;-0.10;99.90;;;;;;5065726;28;20539;-73
2024/01/18 05:42:35;;;;;;;34.70;23.90;;;-0.10;99.90;;;;;;5062050;28;21126;-74
2024/01/18 05:45:02;;;;;;;38.67;24.27;;;-0.10;99.90;;;;;;5055454;28;20467;-73
2024/01/18 05:47:29;;;;;;;43.87;24.80;;;-0.10;99.90;;;;;;5051222;28;21095;-74
2024/01/18 05:49:56;;;;;;;35.37;23.80;;;-0.10;99.90;;;;;;5055721;28;20495;-74
2024/01/18 05:52:24;;;;;;;42.73;23.57;;;0.00;99.90;;;;;;5066030;28;20549;-75
2024/01/18 05:54:52;;;;;;;35.47;22.53;;;-0.10;99.90;;;;;;5065535;28;20501;-81
2024/01/18 05:57:19;;;;;;;36.17;24.80;;;-0.10;99.90;;;;;;5053513;28;20487;-76
2024/01/18 05:59:46;;;;;;;39.00;26.17;;;0.00;99.90;;;;;;5059380;28;20589;-73
2024/01/18 06:02:12;;;;;;;39.80;23.83;;;-0.10;99.90;;;;;;5058701;28;20579;-74
2024/01/18 06:04:40;;;;;;;43.20;26.83;;;-0.10;99.90;;;;;;5062864;28;20923;-74
2024/01/18 06:07:07;;;;;;;40.60;23.87;;;0.00;99.90;;;;;;5058712;28;20574;-73
2024/01/18 06:09:36;;;;;;;36.23;25.27;;;0.10;99.90;;;;;;5056378;28;20529;-75
2024/01/18 06:12:03;;;;;;;35.67;23.60;;;0.10;99.90;;;;;;5053915;28;20454;-74
2024/01/18 06:14:30;;;;;;;38.90;24.87;;;0.10;99.90;;;;;;5060491;28;20469;-74
2024/01/18 06:16:57;;;;;;;43.70;25.07;;;0.20;99.90;;;;;;5062873;28;20545;-85
2024/01/18 06:19:24;;;;;;;39.57;25.07;;;0.20;99.90;;;;;;5058999;28;20445;-75
2024/01/18 06:21:51;;;;;;;36.07;24.30;;;0.20;99.90;;;;;;5061585;28;20558;-74
2024/01/18 06:24:18;;;;;;;37.70;24.67;;;0.30;99.90;;;;;;5056668;28;20606;-74
2024/01/18 06:26:46;;;;;;;46.00;26.13;;;0.20;99.90;;;;;;5058478;28;20531;-74
2024/01/18 06:29:16;;;;;;;32.80;24.90;;;0.30;99.90;;;;;;5066465;28;20460;-74
2024/01/18 06:31:42;;;;;;;36.63;23.80;;;0.30;99.90;;;;;;5052360;28;20535;-75
2024/01/18 06:34:10;;;;;;;40.90;25.27;;;0.40;99.90;;;;;;5058214;28;20541;-74
2024/01/18 06:36:38;;;;;;;35.63;25.90;;;0.40;99.90;;;;;;5054422;28;20494;-75
2024/01/18 06:39:05;;;;;;;37.93;21.83;;;0.50;99.90;;;;;;5059947;28;20442;-75
2024/01/18 06:41:32;;;;;;;39.43;24.50;;;0.50;99.90;;;;;;5058570;28;20511;-76
2024/01/18 06:44:00;;;;;;;37.00;25.10;;;0.50;99.90;;;;;;5063775;28;20531;-75
2024/01/18 06:46:28;;;;;;;41.07;24.63;;;0.60;99.90;;;;;;5059007;28;20456;-74
2024/01/18 06:48:57;;;;;;;43.87;24.70;;;0.70;99.90;;;;;;5064008;28;20549;-74
2024/01/18 06:51:24;;;;;;;44.33;25.80;;;0.60;99.90;;;;;;5057246;28;20492;-75
2024/01/18 06:53:51;;;;;;;41.03;26.67;;;0.70;99.90;;;;;;5063426;28;20474;-76
2024/01/18 06:56:18;;;;;;;46.77;29.40;;;0.80;99.90;;;;;;5066890;28;20456;-74
2024/01/18 06:58:45;;;;;;;43.93;28.53;;;0.80;99.90;;;;;;5062077;28;21140;-74
2024/01/18 07:01:14;;;;;;;46.00;26.20;;;0.80;99.90;;;;;;5062321;28;20515;-77
2024/01/18 07:03:42;;;;;;;36.37;23.80;;;0.70;99.90;;;;;;5064025;28;20463;-75
2024/01/18 07:06:09;;;;;;;37.10;25.10;;;0.80;99.90;;;;;;5062494;28;20529;-79
2024/01/18 07:08:38;;;;;;;41.60;25.67;;;0.80;99.90;;;;;;5059841;28;20454;-75
2024/01/18 07:11:05;;;;;;;41.30;25.77;;;0.80;99.90;;;;;;5060441;28;21111;-73
2024/01/18 07:13:32;;;;;;;49.87;27.10;;;0.70;99.90;;;;;;5063486;28;20520;-75
2024/01/18 07:15:59;;;;;;;43.57;27.57;;;0.80;99.90;;;;;;5059912;28;20502;-74
2024/01/18 07:18:28;;;;;;;47.40;26.40;;;0.80;99.90;;;;;;5058526;28;20461;-75
2024/01/18 07:20:55;;;;;;;34.43;24.83;;;0.70;99.90;;;;;;5054759;28;21015;-76
2024/01/18 07:23:22;;;;;;;39.67;25.17;;;0.70;99.90;;;;;;5061834;28;20467;-74
2024/01/18 07:25:49;;;;;;;36.30;25.17;;;0.80;99.90;;;;;;5057992;28;20496;-87
2024/01/18 07:28:16;;;;;;;40.43;26.10;;;0.90;99.90;;;;;;5054627;28;20456;-74
2024/01/18 07:30:43;;;;;;;41.10;25.03;;;0.90;99.90;;;;;;5057781;28;21102;-76
2024/01/18 07:33:10;;;;;;;39.27;24.83;;;0.90;99.90;;;;;;5058438;28;20848;-74
2024/01/18 07:35:38;;;;;;;39.40;25.33;;;1.00;99.90;;;;;;5061119;28;20901;-74
2024/01/18 07:38:05;;;;;;;41.63;25.27;;;1.10;99.90;;;;;;5062724;28;20491;-76
2024/01/18 07:40:32;;;;;;;33.30;24.43;;;1.10;99.90;;;;;;5054675;28;20487;-73
2024/01/18 07:42:59;;;;;;;40.53;26.73;;;1.00;99.90;;;;;;5053597;28;20510;-75
2024/01/18 07:45:26;;;;;;;31.90;22.67;;;1.10;99.90;;;;;;5059987;28;20464;-73
2024/01/18 07:47:54;;;;;;;36.27;25.27;;;1.10;99.90;;;;;;5056655;28;21005;-73
2024/01/18 07:50:21;;;;;;;44.17;26.23;;;1.10;99.90;;;;;;5058940;28;20997;-73
2024/01/18 07:52:49;;;;;;;36.07;24.80;;;1.10;99.90;;;;;;5059561;28;20536;-74
2024/01/18 07:55:16;;;;;;;47.33;28.90;;;1.20;99.90;;;;;;5049355;28;20440;-74
2024/01/18 07:57:43;;;;;;;51.20;28.30;;;1.20;99.90;;;;;;5065540;28;20463;-74
2024/01/18 08:00:12;;;;;;;139.83;89.57;;;1.20;99.90;;;;;;5074942;28;21120;-73
2024/01/18 08:02:39;;;;;;;42.07;29.70;;;1.30;99.90;;;;;;5066992;28;20609;-74
2024/01/18 08:05:07;;;;;;;91.70;65.07;;;1.40;99.90;;;;;;5064161;28;20529;-73
2024/01/18 08:07:35;;;;;;;68.03;46.67;;;1.30;99.90;;;;;;5065614;28;20493;-73
2024/01/18 08:10:04;;;;;;;102.80;60.07;;;1.40;99.90;;;;;;5067534;28;20506;-74
2024/01/18 08:12:30;;;;;;;93.50;52.17;;;1.50;99.90;;;;;;5050767;28;20498;-74
2024/01/18 08:14:57;;;;;;;57.67;38.13;;;1.50;99.90;;;;;;5056717;28;20549;-72
2024/01/18 08:17:24;;;;;;;47.00;30.37;;;1.50;99.90;;;;;;5056731;28;20770;-74
2024/01/18 08:19:51;;;;;;;60.60;37.80;;;1.40;99.90;;;;;;5057203;28;20538;-74
2024/01/18 08:22:18;;;;;;;47.97;30.40;;;1.50;99.90;;;;;;5061168;28;20989;-71
2024/01/18 08:24:46;;;;;;;52.13;29.67;;;1.50;99.90;;;;;;5058891;28;20792;-72
2024/01/18 08:27:14;;;;;;;55.03;35.50;;;1.60;99.90;;;;;;5064425;28;20491;-75
2024/01/18 08:29:41;;;;;;;38.57;29.67;;;1.70;99.90;;;;;;5057676;28;20544;-75
2024/01/18 08:32:08;;;;;;;48.53;29.70;;;1.70;99.90;;;;;;5056983;28;20502;-72
2024/01/18 08:34:36;;;;;;;52.03;33.83;;;1.70;99.90;;;;;;5060984;28;20512;-75
2024/01/18 08:37:04;;;;;;;41.73;27.20;;;1.70;99.90;;;;;;5052059;28;20538;-74
2024/01/18 08:39:32;;;;;;;46.27;30.77;;;1.90;99.90;;;;;;5063295;28;20524;-74
2024/01/18 08:42:02;;;;;;;38.33;25.30;;;1.80;99.90;;;;;;5064826;28;21053;-75
2024/01/18 08:44:30;;;;;;;33.87;20.53;;;1.80;99.90;;;;;;5064892;28;20836;-72
2024/01/18 08:46:57;;;;;;;29.73;19.97;;;1.80;99.90;;;;;;5064142;28;20490;-72
2024/01/18 08:49:24;;;;;;;32.57;23.13;;;1.90;99.90;;;;;;5063211;28;20456;-74
2024/01/18 08:51:53;;;;;;;34.13;21.93;;;1.80;99.90;;;;;;5066679;28;20668;-72
2024/01/18 08:54:21;;;;;;;29.90;19.83;;;1.80;99.90;;;;;;5060584;28;20462;-75
2024/01/18 08:56:48;;;;;;;28.83;21.00;;;1.70;99.90;;;;;;5051453;28;20464;-77
2024/01/18 08:59:15;;;;;;;34.73;22.43;;;1.80;99.90;;;;;;5060646;28;20505;-78
2024/01/18 09:01:44;;;;;;;33.27;22.90;;;1.90;99.90;;;;;;5060510;28;20488;-80
2024/01/18 09:04:11;;;;;;;25.80;20.97;;;1.90;99.90;;;;;;5057648;28;20502;-71
2024/01/18 09:06:39;;;;;;;29.97;21.20;;;2.00;99.90;;;;;;5061382;28;20517;-80
2024/01/18 09:09:09;;;;;;;27.93;19.50;;;2.10;99.90;;;;;;5061271;28;20449;-72
2024/01/18 09:11:36;;;;;;;33.67;22.47;;;2.10;99.90;;;;;;5048206;28;20465;-72
2024/01/18 09:14:03;;;;;;;24.77;18.33;;;2.30;99.90;;;;;;5060596;28;21166;-72
2024/01/18 09:16:31;;;;;;;24.07;18.03;;;2.30;99.90;;;;;;5060005;28;20529;-71
2024/01/18 09:19:00;;;;;;;23.03;17.87;;;2.40;99.90;;;;;;5058873;28;20484;-72
2024/01/18 09:21:28;;;;;;;29.00;18.93;;;2.40;99.90;;;;;;5057624;28;20659;-71
2024/01/18 09:23:55;;;;;;;27.03;18.93;;;2.50;99.90;;;;;;5048248;28;21151;-72
2024/01/18 09:26:22;;;;;;;28.50;18.13;;;2.60;99.90;;;;;;5052848;28;20469;-73
2024/01/18 09:28:49;;;;;;;22.73;17.57;;;2.60;99.90;;;;;;5063962;28;20555;-73
2024/01/18 09:31:16;;;;;;;37.60;24.07;;;2.70;99.90;;;;;;5060986;28;20467;-74
2024/01/18 09:33:43;;;;;;;25.57;19.63;;;2.90;99.90;;;;;;5051947;28;20473;-72
2024/01/18 09:36:11;;;;;;;26.37;19.67;;;2.90;99.90;;;;;;5053100;28;20784;-73
2024/01/18 09:38:38;;;;;;;22.13;16.20;;;2.90;99.90;;;;;;5060269;28;21236;-73
2024/01/18 09:41:08;;;;;;;25.63;17.83;;;2.90;99.90;;;;;;5057146;28;20981;-74
2024/01/18 09:43:38;;;;;;;25.47;17.80;;;3.00;99.90;;;;;;5049542;28;20480;-74
2024/01/18 09:46:07;;;;;;;19.80;15.57;;;3.00;99.90;;;;;;5053597;28;20904;-71
2024/01/18 09:48:34;;;;;;;29.63;18.00;;;3.20;99.90;;;;;;5060216;28;20492;-72
2024/01/18 09:51:06;;;;;;;25.67;20.20;;;3.30;99.90;;;;;;5063255;28;20506;-72
2024/01/18 09:53:36;;;;;;;18.60;15.53;;;3.30;99.90;;;;;;5059775;28;20594;-75
2024/01/18 09:56:10;;;;;;;20.00;15.33;;;3.30;99.90;;;;;;5061722;28;20756;-74
2024/01/18 09:58:37;;;;;;;21.77;17.53;;;3.30;99.90;;;;;;5050518;28;20474;-74
2024/01/18 10:01:06;;;;;;;22.63;17.30;;;3.30;99.90;;;;;;5062401;28;20448;-72
2024/01/18 10:03:33;;;;;;;21.43;15.30;;;3.40;99.90;;;;;;5057640;28;21188;-72
2024/01/18 10:06:00;;;;;;;19.93;15.00;;;3.50;99.90;;;;;;5061297;28;20933;-72
2024/01/18 10:08:28;;;;;;;23.83;16.10;;;3.50;99.90;;;;;;5061341;28;20437;-72
2024/01/18 10:10:56;;;;;;;26.33;15.97;;;3.50;99.90;;;;;;5055517;28;20551;-73
2024/01/18 10:13:23;;;;;;;20.23;16.50;;;3.70;99.90;;;;;;5061065;28;20472;-73
2024/01/18 10:15:50;;;;;;;23.13;16.93;;;3.80;99.90;;;;;;5054459;28;20488;-75
2024/01/18 10:18:17;;;;;;;24.13;18.20;;;3.80;99.90;;;;;;5062457;28;20458;-72
2024/01/18 10:20:45;;;;;;;24.00;18.83;;;3.70;99.90;;;;;;5061347;28;20529;-72
2024/01/18 10:23:13;;;;;;;35.60;23.40;;;3.70;99.90;;;;;;5066061;28;20486;-73
2024/01/18 10:25:44;;;;;;;28.40;21.27;;;3.80;99.90;;;;;;5056335;28;20539;-74
2024/01/18 10:28:12;;;;;;;39.00;24.73;;;4.00;99.90;;;;;;5053448;28;21061;-72
2024/01/18 10:30:39;;;;;;;30.37;22.30;;;3.80;99.90;;;;;;5062566;28;20448;-74
2024/01/18 10:33:08;;;;;;;29.80;22.57;;;3.90;99.90;;;;;;5059209;28;20528;-73
2024/01/18 10:35:35;;;;;;;29.40;23.60;;;4.00;99.90;;;;;;5059407;28;20459;-76
2024/01/18 10:38:04;;;;;;;31.50;23.70;;;4.00;99.90;;;;;;5060020;28;21185;-73
2024/01/18 10:40:33;;;;;;;31.57;25.93;;;4.10;99.90;;;;;;5063268;28;20527;-75
2024/01/18 10:43:01;;;;;;;30.07;23.27;;;4.30;99.90;;;;;;5060336;28;20487;-73
2024/01/18 10:45:32;;;;;;;28.10;19.40;;;4.30;99.90;;;;;;5060421;28;20519;-75
2024/01/18 10:48:00;;;;;;;26.83;20.40;;;4.40;99.90;;;;;;5058138;28;20491;-74
2024/01/18 10:50:27;;;;;;;25.33;18.40;;;4.50;99.90;;;;;;5060014;28;20440;-74
2024/01/18 10:52:55;;;;;;;26.50;19.20;;;4.50;99.90;;;;;;5052555;28;20514;-74
2024/01/18 10:55:22;;;;;;;26.50;17.00;;;4.40;99.90;;;;;;5058476;28;20453;-73
2024/01/18 10:57:49;;;;;;;19.30;15.33;;;4.40;99.90;;;;;;5054583;28;20545;-73
2024/01/18 11:00:17;;;;;;;18.67;16.77;;;4.40;99.90;;;;;;5060152;28;20446;-74
2024/01/18 11:02:45;;;;;;;21.60;15.63;;;4.40;99.90;;;;;;5056316;28;20540;-73
2024/01/18 11:05:15;;;;;;;19.00;16.00;;;4.70;99.90;;;;;;5058283;28;20465;-73
2024/01/18 11:07:42;;;;;;;47.47;38.67;;;4.70;99.90;;;;;;5058131;28;20450;-72
2024/01/18 11:10:13;;;;;;;50.90;41.20;;;4.50;99.90;;;;;;5057638;28;20976;-72
2024/01/18 11:12:41;;;;;;;32.07;23.60;;;4.80;99.90;;;;;;5055629;28;20536;-74
2024/01/18 11:15:11;;;;;;;27.67;21.13;;;5.00;99.90;;;;;;5062191;28;21095;-77
2024/01/18 11:17:46;;;;;;;24.80;20.50;;;5.10;99.90;;;;;;5059846;28;20523;-75
2024/01/18 11:20:13;;;;;;;27.53;21.70;;;5.20;99.90;;;;;;5061327;28;20910;-72
2024/01/18 11:22:41;;;;;;;34.63;25.60;;;4.90;99.90;;;;;;5066788;28;20515;-73
2024/01/18 11:25:09;;;;;;;33.13;24.80;;;5.10;99.90;;;;;;5065816;28;20542;-75
2024/01/18 11:27:41;;;;;;;32.17;22.40;;;5.20;99.90;;;;;;5068331;28;20475;-74
2024/01/18 11:30:11;;;;;;;27.37;21.53;;;5.10;99.90;;;;;;5067220;28;20592;-73
2024/01/18 11:32:38;;;;;;;21.60;19.13;;;5.30;99.90;;;;;;5060032;28;20497;-75
2024/01/18 11:35:11;;;;;;;24.73;19.00;;;5.40;99.90;;;;;;5068264;28;20474;-71
2024/01/18 11:37:38;;;;;;;25.20;20.10;;;5.70;99.90;;;;;;5068943;28;20466;-75
2024/01/18 11:40:07;;;;;;;26.00;20.40;;;5.70;99.90;;;;;;5063732;28;20497;-74
2024/01/18 11:42:34;;;;;;;30.77;25.30;;;5.60;99.90;;;;;;5063015;28;20987;-73
2024/01/18 11:45:03;;;;;;;39.87;27.43;;;6.10;99.90;;;;;;5058359;28;20515;-72
2024/01/18 11:47:32;;;;;;;40.97;28.67;;;6.10;99.90;;;;;;5061149;28;20450;-73
2024/01/18 11:50:01;;;;;;;28.17;22.70;;;6.20;99.90;;;;;;5058205;28;20495;-76
2024/01/18 11:52:32;;;;;;;29.73;22.80;;;6.10;99.90;;;;;;5053814;28;20731;-73
2024/01/18 11:55:00;;;;;;;28.00;21.30;;;5.90;99.90;;;;;;5055515;28;20468;-75
2024/01/18 11:57:27;;;;;;;26.63;20.20;;;5.90;99.90;;;;;;5057329;28;21061;-75
2024/01/18 11:59:55;;;;;;;27.80;20.17;;;5.90;99.90;;;;;;5056964;28;20563;-72
2024/01/18 12:02:22;;;;;;;28.43;21.23;;;6.00;99.90;;;;;;5057456;28;20581;-73
2024/01/18 12:04:50;;;;;;;28.70;19.90;;;6.00;99.90;;;;;;5056341;28;20443;-74
2024/01/18 12:07:17;;;;;;;24.70;20.43;;;6.00;99.90;;;;;;5062703;28;20466;-72
2024/01/18 12:09:46;;;;;;;31.63;21.27;;;6.40;99.90;;;;;;5059329;28;20513;-72
2024/01/18 12:12:13;;;;;;;23.90;18.40;;;6.60;99.90;;;;;;5060881;28;20441;-73
2024/01/18 12:14:42;;;;;;;22.83;19.80;;;6.30;99.90;;;;;;5058719;28;20451;-75
2024/01/18 12:17:10;;;;;;;21.73;16.97;;;6.30;99.90;;;;;;5063857;28;20520;-75
2024/01/18 12:19:38;;;;;;;19.27;15.63;;;6.20;99.90;;;;;;5056874;28;20439;-74
2024/01/18 12:22:08;;;;;;;23.63;16.43;;;6.20;99.90;;;;;;5063363;28;20957;-74
2024/01/18 12:24:34;;;;;;;27.90;20.50;;;6.00;99.90;;;;;;5059055;28;20590;-73
2024/01/18 12:27:04;;;;;;;23.13;19.20;;;5.90;99.90;;;;;;5053529;28;20546;-74
2024/01/18 12:29:32;;;;;;;21.27;18.47;;;5.70;99.90;;;;;;5060081;28;21165;-74
2024/01/18 12:31:59;;;;;;;29.37;19.87;;;5.70;99.90;;;;;;5067382;28;20469;-72
2024/01/18 12:34:28;;;;;;;25.90;19.63;;;5.50;99.90;;;;;;5060606;28;20456;-73